sensor_id;sensor_type;location;lat;lon;timestamp;pressure;altitude;pressure_sealevel;temperature
45701;BMP280;36277;32.852;-116.998;2023-01-24T00:01:24;100158.16;;;23.94
45701;BMP280;36277;32.852;-116.998;2023-01-24T00:03:51;100156.28;;;23.94
45701;BMP280;36277;32.852;-116.998;2023-01-24T00:06:17;100158.81;;;23.96
45701;BMP280;36277;32.852;-116.998;2023-01-24T00:08:44;100167.94;;;23.96
45701;BMP280;36277;32.852;-116.998;2023-01-24T00:11:11;100171.34;;;23.98
45701;BMP280;36277;32.852;-116.998;2023-01-24T00:13:38;100177.75;;;23.99
45701;BMP280;36277;32.852;-116.998;2023-01-24T00:16:16;100178.41;;;24.01
45701;BMP280;36277;32.852;-116.998;2023-01-24T00:18:44;100179.63;;;23.98
45701;BMP280;36277;32.852;-116.998;2023-01-24T00:21:15;100170.13;;;24.01
45701;BMP280;36277;32.852;-116.998;2023-01-24T00:23:44;100172.69;;;24.02
45701;BMP280;36277;32.852;-116.998;2023-01-24T00:26:11;100173.56;;;24.03
45701;BMP280;36277;32.852;-116.998;2023-01-24T00:28:38;100178.88;;;24.04
45701;BMP280;36277;32.852;-116.998;2023-01-24T00:31:05;100179.75;;;24.05
45701;BMP280;36277;32.852;-116.998;2023-01-24T00:33:32;100172.97;;;24.07
45701;BMP280;36277;32.852;-116.998;2023-01-24T00:35:59;100185.94;;;24.07
45701;BMP280;36277;32.852;-116.998;2023-01-24T00:38:28;100191.91;;;24.10
45701;BMP280;36277;32.852;-116.998;2023-01-24T00:40:54;100185.34;;;24.11
45701;BMP280;36277;32.852;-116.998;2023-01-24T00:43:20;100188.94;;;24.12
45701;BMP280;36277;32.852;-116.998;2023-01-24T00:45:47;100195.31;;;24.12
45701;BMP280;36277;32.852;-116.998;2023-01-24T00:48:13;100197.03;;;24.13
45701;BMP280;36277;32.852;-116.998;2023-01-24T00:50:40;100202.53;;;24.13
45701;BMP280;36277;32.852;-116.998;2023-01-24T00:53:07;100192.19;;;24.15
45701;BMP280;36277;32.852;-116.998;2023-01-24T00:55:34;100197.03;;;24.13
45701;BMP280;36277;32.852;-116.998;2023-01-24T00:58:00;100203.75;;;24.11
45701;BMP280;36277;32.852;-116.998;2023-01-24T01:00:26;100206.72;;;24.09
45701;BMP280;36277;32.852;-116.998;2023-01-24T01:02:52;100206.72;;;24.09
45701;BMP280;36277;32.852;-116.998;2023-01-24T01:05:19;100209.69;;;24.08
45701;BMP280;36277;32.852;-116.998;2023-01-24T01:07:45;100208.81;;;24.07
45701;BMP280;36277;32.852;-116.998;2023-01-24T01:10:11;100215.59;;;24.05
45701;BMP280;36277;32.852;-116.998;2023-01-24T01:12:38;100214.72;;;24.04
45701;BMP280;36277;32.852;-116.998;2023-01-24T01:15:04;100220.22;;;24.04
45701;BMP280;36277;32.852;-116.998;2023-01-24T01:17:31;100210.44;;;24.02
45701;BMP280;36277;32.852;-116.998;2023-01-24T01:19:57;100214.44;;;23.99
45701;BMP280;36277;32.852;-116.998;2023-01-24T01:22:24;100218.91;;;24.00
45701;BMP280;36277;32.852;-116.998;2023-01-24T01:24:50;100213.75;;;23.97
45701;BMP280;36277;32.852;-116.998;2023-01-24T01:27:17;100218.63;;;23.95
45701;BMP280;36277;32.852;-116.998;2023-01-24T01:29:43;100232.41;;;23.95
45701;BMP280;36277;32.852;-116.998;2023-01-24T01:32:09;100248.97;;;23.95
45701;BMP280;36277;32.852;-116.998;2023-01-24T01:34:35;100266.72;;;23.93
45701;BMP280;36277;32.852;-116.998;2023-01-24T01:37:02;100272.22;;;23.93
45701;BMP280;36277;32.852;-116.998;2023-01-24T01:39:28;100286.88;;;23.93
45701;BMP280;36277;32.852;-116.998;2023-01-24T01:41:54;100290.69;;;23.92
45701;BMP280;36277;32.852;-116.998;2023-01-24T01:44:29;100296.00;;;23.94
45701;BMP280;36277;32.852;-116.998;2023-01-24T01:50:14;100287.25;;;23.90
45701;BMP280;36277;32.852;-116.998;2023-01-24T01:52:43;100283.16;;;23.86
45701;BMP280;36277;32.852;-116.998;2023-01-24T01:55:17;100282.78;;;23.89
45701;BMP280;36277;32.852;-116.998;2023-01-24T01:57:45;100285.06;;;23.86
45701;BMP280;36277;32.852;-116.998;2023-01-24T02:00:20;100279.53;;;23.86
45701;BMP280;36277;32.852;-116.998;2023-01-24T02:03:09;100282.50;;;23.84
45701;BMP280;36277;32.852;-116.998;2023-01-24T02:05:57;100278.75;;;23.77
45701;BMP280;36277;32.852;-116.998;2023-01-24T02:08:24;100271.38;;;23.78
45701;BMP280;36277;32.852;-116.998;2023-01-24T02:10:52;100273.22;;;23.77
45701;BMP280;36277;32.852;-116.998;2023-01-24T02:13:37;100283.78;;;23.74
45701;BMP280;36277;32.852;-116.998;2023-01-24T02:16:11;100301.16;;;23.74
45701;BMP280;36277;32.852;-116.998;2023-01-24T02:18:39;100304.28;;;23.71
45701;BMP280;36277;32.852;-116.998;2023-01-24T02:21:12;100309.63;;;23.73
45701;BMP280;36277;32.852;-116.998;2023-01-24T02:26:19;100314.84;;;23.68
45701;BMP280;36277;32.852;-116.998;2023-01-24T02:28:54;100323.00;;;23.61
45701;BMP280;36277;32.852;-116.998;2023-01-24T02:31:22;100330.22;;;23.62
45701;BMP280;36277;32.852;-116.998;2023-01-24T02:33:49;100326.44;;;23.63
45701;BMP280;36277;32.852;-116.998;2023-01-24T02:36:35;100326.06;;;23.66
45701;BMP280;36277;32.852;-116.998;2023-01-24T02:39:09;100332.63;;;23.65
45701;BMP280;36277;32.852;-116.998;2023-01-24T02:41:49;100334.88;;;23.62
45701;BMP280;36277;32.852;-116.998;2023-01-24T02:44:21;100351.91;;;23.65
45701;BMP280;36277;32.852;-116.998;2023-01-24T02:46:49;100354.81;;;23.64
45701;BMP280;36277;32.852;-116.998;2023-01-24T02:49:15;100355.13;;;23.69
45701;BMP280;36277;32.852;-116.998;2023-01-24T02:51:41;100364.06;;;23.71
45701;BMP280;36277;32.852;-116.998;2023-01-24T02:54:26;100370.63;;;23.70
45701;BMP280;36277;32.852;-116.998;2023-01-24T02:56:52;100374.91;;;23.72
45701;BMP280;36277;32.852;-116.998;2023-01-24T02:59:37;100367.66;;;23.71
45701;BMP280;36277;32.852;-116.998;2023-01-24T03:02:03;100362.16;;;23.71
45701;BMP280;36277;32.852;-116.998;2023-01-24T03:04:29;100358.75;;;23.69
45701;BMP280;36277;32.852;-116.998;2023-01-24T03:06:55;100360.66;;;23.69
45701;BMP280;36277;32.852;-116.998;2023-01-24T03:09:22;100366.16;;;23.69
45701;BMP280;36277;32.852;-116.998;2023-01-24T03:12:00;100383.56;;;23.69
45701;BMP280;36277;32.852;-116.998;2023-01-24T03:14:46;100402.19;;;23.67
45701;BMP280;36277;32.852;-116.998;2023-01-24T03:17:31;100408.06;;;23.64
45701;BMP280;36277;32.852;-116.998;2023-01-24T03:20:16;100414.59;;;23.63
45701;BMP280;36277;32.852;-116.998;2023-01-24T03:23:00;100413.06;;;23.61
45701;BMP280;36277;32.852;-116.998;2023-01-24T03:28:17;100423.41;;;23.59
45701;BMP280;36277;32.852;-116.998;2023-01-24T03:31:06;100419.59;;;23.60
45701;BMP280;36277;32.852;-116.998;2023-01-24T03:33:50;100435.09;;;23.61
45701;BMP280;36277;32.852;-116.998;2023-01-24T03:36:35;100443.00;;;23.64
45701;BMP280;36277;32.852;-116.998;2023-01-24T03:39:01;100444.56;;;23.66
45701;BMP280;36277;32.852;-116.998;2023-01-24T03:41:46;100452.81;;;23.66
45701;BMP280;36277;32.852;-116.998;2023-01-24T03:44:12;100448.63;;;23.70
45701;BMP280;36277;32.852;-116.998;2023-01-24T03:46:38;100451.78;;;23.67
45701;BMP280;36277;32.852;-116.998;2023-01-24T03:49:06;100456.78;;;23.64
45701;BMP280;36277;32.852;-116.998;2023-01-24T03:51:32;100451.81;;;23.59
45701;BMP280;36277;32.852;-116.998;2023-01-24T03:54:17;100446.69;;;23.56
45701;BMP280;36277;32.852;-116.998;2023-01-24T03:56:43;100459.66;;;23.48
45701;BMP280;36277;32.852;-116.998;2023-01-24T03:59:09;100473.59;;;23.46
45701;BMP280;36277;32.852;-116.998;2023-01-24T04:01:36;100484.31;;;23.41
45701;BMP280;36277;32.852;-116.998;2023-01-24T04:04:02;100496.06;;;23.35
45701;BMP280;36277;32.852;-116.998;2023-01-24T04:06:28;100509.63;;;23.37
45701;BMP280;36277;32.852;-116.998;2023-01-24T04:08:55;100507.41;;;23.40
45701;BMP280;36277;32.852;-116.998;2023-01-24T04:11:21;100499.81;;;23.42
45701;BMP280;36277;32.852;-116.998;2023-01-24T04:13:47;100496.88;;;23.44
45701;BMP280;36277;32.852;-116.998;2023-01-24T04:16:13;100504.94;;;23.45
45701;BMP280;36277;32.852;-116.998;2023-01-24T04:18:40;100517.50;;;23.48
45701;BMP280;36277;32.852;-116.998;2023-01-24T04:21:06;100522.16;;;23.47
45701;BMP280;36277;32.852;-116.998;2023-01-24T04:23:33;100526.25;;;23.51
45701;BMP280;36277;32.852;-116.998;2023-01-24T04:25:59;100541.94;;;23.51
45701;BMP280;36277;32.852;-116.998;2023-01-24T04:28:26;100553.47;;;23.54
45701;BMP280;36277;32.852;-116.998;2023-01-24T04:31:00;100559.84;;;23.55
45701;BMP280;36277;32.852;-116.998;2023-01-24T04:33:26;100557.94;;;23.55
45701;BMP280;36277;32.852;-116.998;2023-01-24T04:35:56;100573.22;;;23.58
45701;BMP280;36277;32.852;-116.998;2023-01-24T04:38:23;100564.47;;;23.54
45701;BMP280;36277;32.852;-116.998;2023-01-24T04:41:00;100560.34;;;23.58
45701;BMP280;36277;32.852;-116.998;2023-01-24T04:43:26;100555.53;;;23.52
45701;BMP280;36277;32.852;-116.998;2023-01-24T04:45:59;100561.91;;;23.53
45701;BMP280;36277;32.852;-116.998;2023-01-24T04:48:25;100560.38;;;23.50
45701;BMP280;36277;32.852;-116.998;2023-01-24T04:50:57;100572.94;;;23.53
45701;BMP280;36277;32.852;-116.998;2023-01-24T04:53:24;100586.03;;;23.51
45701;BMP280;36277;32.852;-116.998;2023-01-24T04:55:50;100595.34;;;23.50
45701;BMP280;36277;32.852;-116.998;2023-01-24T04:58:17;100597.22;;;23.49
45701;BMP280;36277;32.852;-116.998;2023-01-24T05:00:43;100594.47;;;23.49
45701;BMP280;36277;32.852;-116.998;2023-01-24T05:03:09;100593.44;;;23.50
45701;BMP280;36277;32.852;-116.998;2023-01-24T05:05:36;100590.00;;;23.48
45701;BMP280;36277;32.852;-116.998;2023-01-24T05:08:02;100594.66;;;23.48
45701;BMP280;36277;32.852;-116.998;2023-01-24T05:10:28;100598.44;;;23.47
45701;BMP280;36277;32.852;-116.998;2023-01-24T05:12:54;100605.84;;;23.46
45701;BMP280;36277;32.852;-116.998;2023-01-24T05:15:21;100606.22;;;23.43
45701;BMP280;36277;32.852;-116.998;2023-01-24T05:17:48;100621.72;;;23.44
45701;BMP280;36277;32.852;-116.998;2023-01-24T05:20:15;100629.28;;;23.42
45701;BMP280;36277;32.852;-116.998;2023-01-24T05:22:41;100636.00;;;23.40
45701;BMP280;36277;32.852;-116.998;2023-01-24T05:25:14;100636.19;;;23.38
45701;BMP280;36277;32.852;-116.998;2023-01-24T05:27:41;100643.78;;;23.36
45701;BMP280;36277;32.852;-116.998;2023-01-24T05:30:08;100628.28;;;23.35
45701;BMP280;36277;32.852;-116.998;2023-01-24T05:32:35;100628.63;;;23.32
45701;BMP280;36277;32.852;-116.998;2023-01-24T05:35:01;100635.34;;;23.30
45701;BMP280;36277;32.852;-116.998;2023-01-24T05:37:27;100640.88;;;23.30
45701;BMP280;36277;32.852;-116.998;2023-01-24T05:39:54;100644.81;;;23.27
45701;BMP280;36277;32.852;-116.998;2023-01-24T05:42:20;100646.72;;;23.27
45701;BMP280;36277;32.852;-116.998;2023-01-24T05:44:47;100653.44;;;23.24
45701;BMP280;36277;32.852;-116.998;2023-01-24T05:47:13;100667.38;;;23.23
45701;BMP280;36277;32.852;-116.998;2023-01-24T05:49:39;100660.31;;;23.20
45701;BMP280;36277;32.852;-116.998;2023-01-24T05:52:06;100664.28;;;23.18
45701;BMP280;36277;32.852;-116.998;2023-01-24T05:54:32;100669.78;;;23.26
45701;BMP280;36277;32.852;-116.998;2023-01-24T05:56:58;100665.28;;;23.33
45701;BMP280;36277;32.852;-116.998;2023-01-24T05:59:25;100670.63;;;23.42
45701;BMP280;36277;32.852;-116.998;2023-01-24T06:01:51;100685.03;;;23.52
45701;BMP280;36277;32.852;-116.998;2023-01-24T06:04:17;100686.75;;;23.61
45701;BMP280;36277;32.852;-116.998;2023-01-24T06:06:43;100693.91;;;23.70
45701;BMP280;36277;32.852;-116.998;2023-01-24T06:09:10;100699.28;;;23.80
45701;BMP280;36277;32.852;-116.998;2023-01-24T06:11:36;100692.53;;;23.90
45701;BMP280;36277;32.852;-116.998;2023-01-24T06:14:02;100695.22;;;23.98
45701;BMP280;36277;32.852;-116.998;2023-01-24T06:16:29;100699.66;;;24.07
45701;BMP280;36277;32.852;-116.998;2023-01-24T06:18:55;100698.59;;;24.16
45701;BMP280;36277;32.852;-116.998;2023-01-24T06:21:29;100706.78;;;24.24
45701;BMP280;36277;32.852;-116.998;2023-01-24T06:23:58;100718.69;;;24.32
45701;BMP280;36277;32.852;-116.998;2023-01-24T06:26:24;100714.66;;;24.43
45701;BMP280;36277;32.852;-116.998;2023-01-24T06:28:51;100721.84;;;24.52
45701;BMP280;36277;32.852;-116.998;2023-01-24T06:34:44;100717.06;;;24.68
45701;BMP280;36277;32.852;-116.998;2023-01-24T06:39:53;100728.66;;;24.86
45701;BMP280;36277;32.852;-116.998;2023-01-24T06:42:21;100738.81;;;24.94
45701;BMP280;36277;32.852;-116.998;2023-01-24T06:44:47;100745.66;;;24.98
45701;BMP280;36277;32.852;-116.998;2023-01-24T06:47:15;100741.13;;;25.05
45701;BMP280;36277;32.852;-116.998;2023-01-24T06:49:42;100739.34;;;25.12
45701;BMP280;36277;32.852;-116.998;2023-01-24T06:52:09;100741.41;;;25.18
45701;BMP280;36277;32.852;-116.998;2023-01-24T06:54:35;100744.06;;;25.26
45701;BMP280;36277;32.852;-116.998;2023-01-24T06:57:02;100746.09;;;25.31
45701;BMP280;36277;32.852;-116.998;2023-01-24T06:59:29;100740.88;;;25.36
45701;BMP280;36277;32.852;-116.998;2023-01-24T07:01:56;100739.06;;;25.43
45701;BMP280;36277;32.852;-116.998;2023-01-24T07:04:22;100737.72;;;25.39
45701;BMP280;36277;32.852;-116.998;2023-01-24T07:06:48;100748.09;;;25.37
45701;BMP280;36277;32.852;-116.998;2023-01-24T07:09:22;100752.97;;;25.35
45701;BMP280;36277;32.852;-116.998;2023-01-24T07:11:49;100744.38;;;25.30
45701;BMP280;36277;32.852;-116.998;2023-01-24T07:14:18;100741.28;;;25.26
45701;BMP280;36277;32.852;-116.998;2023-01-24T07:16:45;100742.06;;;25.20
45701;BMP280;36277;32.852;-116.998;2023-01-24T07:19:15;100745.19;;;25.17
45701;BMP280;36277;32.852;-116.998;2023-01-24T07:21:43;100749.72;;;25.10
45701;BMP280;36277;32.852;-116.998;2023-01-24T07:24:21;100741.78;;;25.07
45701;BMP280;36277;32.852;-116.998;2023-01-24T07:26:48;100748.41;;;24.98
45701;BMP280;36277;32.852;-116.998;2023-01-24T07:29:17;100755.38;;;24.94
45701;BMP280;36277;32.852;-116.998;2023-01-24T07:31:44;100753.16;;;24.89
45701;BMP280;36277;32.852;-116.998;2023-01-24T07:34:11;100741.97;;;24.83
45701;BMP280;36277;32.852;-116.998;2023-01-24T07:36:37;100744.63;;;24.76
45701;BMP280;36277;32.852;-116.998;2023-01-24T07:39:03;100747.75;;;24.73
45701;BMP280;36277;32.852;-116.998;2023-01-24T07:41:30;100737.44;;;24.67
45701;BMP280;36277;32.852;-116.998;2023-01-24T07:43:56;100729.72;;;24.63
45701;BMP280;36277;32.852;-116.998;2023-01-24T07:46:23;100737.69;;;24.58
45701;BMP280;36277;32.852;-116.998;2023-01-24T07:48:49;100740.13;;;24.53
45701;BMP280;36277;32.852;-116.998;2023-01-24T07:51:15;100742.41;;;24.49
45701;BMP280;36277;32.852;-116.998;2023-01-24T07:53:41;100734.63;;;24.45
45701;BMP280;36277;32.852;-116.998;2023-01-24T07:56:08;100733.06;;;24.42
45701;BMP280;36277;32.852;-116.998;2023-01-24T07:58:34;100727.06;;;24.39
45701;BMP280;36277;32.852;-116.998;2023-01-24T08:01:00;100716.75;;;24.33
45701;BMP280;36277;32.852;-116.998;2023-01-24T08:03:27;100722.63;;;24.30
45701;BMP280;36277;32.852;-116.998;2023-01-24T08:05:53;100715.75;;;24.26
45701;BMP280;36277;32.852;-116.998;2023-01-24T08:08:20;100708.88;;;24.22
45701;BMP280;36277;32.852;-116.998;2023-01-24T08:10:46;100705.81;;;24.17
45701;BMP280;36277;32.852;-116.998;2023-01-24T08:13:12;100703.44;;;24.14
45701;BMP280;36277;32.852;-116.998;2023-01-24T08:15:38;100704.81;;;24.10
45701;BMP280;36277;32.852;-116.998;2023-01-24T08:18:05;100701.75;;;24.05
45701;BMP280;36277;32.852;-116.998;2023-01-24T08:20:31;100701.06;;;24.03
45701;BMP280;36277;32.852;-116.998;2023-01-24T08:22:58;100706.09;;;24.00
45701;BMP280;36277;32.852;-116.998;2023-01-24T08:25:25;100708.16;;;23.98
45701;BMP280;36277;32.852;-116.998;2023-01-24T08:27:53;100699.75;;;23.91
45701;BMP280;36277;32.852;-116.998;2023-01-24T08:30:19;100713.00;;;23.88
45701;BMP280;36277;32.852;-116.998;2023-01-24T08:32:46;100714.25;;;23.85
45701;BMP280;36277;32.852;-116.998;2023-01-24T08:35:12;100709.28;;;23.81
45701;BMP280;36277;32.852;-116.998;2023-01-24T08:37:38;100708.72;;;23.77
45701;BMP280;36277;32.852;-116.998;2023-01-24T08:40:05;100718.22;;;23.75
45701;BMP280;36277;32.852;-116.998;2023-01-24T08:42:32;100714.09;;;23.71
45701;BMP280;36277;32.852;-116.998;2023-01-24T08:44:58;100719.09;;;23.67
45701;BMP280;36277;32.852;-116.998;2023-01-24T08:47:24;100711.19;;;23.64
45701;BMP280;36277;32.852;-116.998;2023-01-24T08:49:50;100714.28;;;23.61
45701;BMP280;36277;32.852;-116.998;2023-01-24T08:52:17;100711.88;;;23.58
45701;BMP280;36277;32.852;-116.998;2023-01-24T08:54:43;100726.38;;;23.52
45701;BMP280;36277;32.852;-116.998;2023-01-24T08:57:09;100725.00;;;23.48
45701;BMP280;36277;32.852;-116.998;2023-01-24T08:59:36;100718.97;;;23.45
45701;BMP280;36277;32.852;-116.998;2023-01-24T09:02:03;100724.16;;;23.40
45701;BMP280;36277;32.852;-116.998;2023-01-24T09:04:30;100718.13;;;23.36
45701;BMP280;36277;32.852;-116.998;2023-01-24T09:06:56;100719.53;;;23.32
45701;BMP280;36277;32.852;-116.998;2023-01-24T09:09:22;100719.03;;;23.29
45701;BMP280;36277;32.852;-116.998;2023-01-24T09:11:50;100722.97;;;23.26
45701;BMP280;36277;32.852;-116.998;2023-01-24T09:14:17;100726.06;;;23.23
45701;BMP280;36277;32.852;-116.998;2023-01-24T09:16:44;100728.50;;;23.18
45701;BMP280;36277;32.852;-116.998;2023-01-24T09:19:11;100736.06;;;23.16
45701;BMP280;36277;32.852;-116.998;2023-01-24T09:21:38;100740.22;;;23.12
45701;BMP280;36277;32.852;-116.998;2023-01-24T09:24:05;100736.06;;;23.08
45701;BMP280;36277;32.852;-116.998;2023-01-24T09:26:31;100737.25;;;23.06
45701;BMP280;36277;32.852;-116.998;2023-01-24T09:28:57;100736.03;;;23.00
45701;BMP280;36277;32.852;-116.998;2023-01-24T09:31:23;100748.25;;;22.98
45701;BMP280;36277;32.852;-116.998;2023-01-24T09:33:50;100744.13;;;22.94
45701;BMP280;36277;32.852;-116.998;2023-01-24T09:36:16;100733.44;;;22.91
45701;BMP280;36277;32.852;-116.998;2023-01-24T09:38:42;100728.47;;;22.87
45701;BMP280;36277;32.852;-116.998;2023-01-24T09:43:53;100734.66;;;22.81
45701;BMP280;36277;32.852;-116.998;2023-01-24T09:51:58;100727.09;;;22.67
45701;BMP280;36277;32.852;-116.998;2023-01-24T09:54:50;100720.72;;;22.66
45701;BMP280;36277;32.852;-116.998;2023-01-24T09:58:19;100718.47;;;22.62
45701;BMP280;36277;32.852;-116.998;2023-01-24T10:00:33;100727.75;;;22.61
45701;BMP280;36277;32.852;-116.998;2023-01-24T10:03:01;100734.66;;;22.65
45701;BMP280;36277;32.852;-116.998;2023-01-24T10:05:37;100738.09;;;22.75
45701;BMP280;36277;32.852;-116.998;2023-01-24T10:16:38;100762.38;;;23.03
45701;BMP280;36277;32.852;-116.998;2023-01-24T10:21:59;100772.03;;;23.23
45701;BMP280;36277;32.852;-116.998;2023-01-24T10:24:34;100766.69;;;23.29
45701;BMP280;36277;32.852;-116.998;2023-01-24T10:27:01;100764.09;;;23.36
45701;BMP280;36277;32.852;-116.998;2023-01-24T10:29:39;100759.63;;;23.43
45701;BMP280;36277;32.852;-116.998;2023-01-24T10:32:14;100773.88;;;23.54
45701;BMP280;36277;32.852;-116.998;2023-01-24T10:35:11;100770.59;;;23.59
45701;BMP280;36277;32.852;-116.998;2023-01-24T10:37:37;100773.34;;;23.67
45701;BMP280;36277;32.852;-116.998;2023-01-24T10:40:11;100777.81;;;23.76
45701;BMP280;36277;32.852;-116.998;2023-01-24T10:42:38;100777.63;;;23.77
45701;BMP280;36277;32.852;-116.998;2023-01-24T10:47:54;100788.84;;;23.76
45701;BMP280;36277;32.852;-116.998;2023-01-24T10:50:34;100782.66;;;23.74
45701;BMP280;36277;32.852;-116.998;2023-01-24T10:55:49;100768.72;;;23.59
45701;BMP280;36277;32.852;-116.998;2023-01-24T10:58:27;100778.03;;;23.58
45701;BMP280;36277;32.852;-116.998;2023-01-24T11:01:05;100773.19;;;23.52
45701;BMP280;36277;32.852;-116.998;2023-01-24T11:03:33;100778.38;;;23.47
45701;BMP280;36277;32.852;-116.998;2023-01-24T11:06:04;100782.53;;;23.43
45701;BMP280;36277;32.852;-116.998;2023-01-24T11:08:37;100788.03;;;23.43
45701;BMP280;36277;32.852;-116.998;2023-01-24T11:11:19;100795.78;;;23.40
45701;BMP280;36277;32.852;-116.998;2023-01-24T11:13:46;100801.13;;;23.33
45701;BMP280;36277;32.852;-116.998;2023-01-24T11:21:21;100801.47;;;23.22
45701;BMP280;36277;32.852;-116.998;2023-01-24T11:24:12;100798.88;;;23.21
45701;BMP280;36277;32.852;-116.998;2023-01-24T11:29:20;100805.75;;;23.09
45701;BMP280;36277;32.852;-116.998;2023-01-24T11:32:16;100806.94;;;23.06
45701;BMP280;36277;32.852;-116.998;2023-01-24T11:35:10;100816.91;;;22.99
45701;BMP280;36277;32.852;-116.998;2023-01-24T11:57:45;100840.56;;;22.61
45701;BMP280;36277;32.852;-116.998;2023-01-24T12:03:45;100850.13;;;22.49
45701;BMP280;36277;32.852;-116.998;2023-01-24T12:11:55;100866.63;;;22.41
45701;BMP280;36277;32.852;-116.998;2023-01-24T12:14:32;100885.88;;;22.41
45701;BMP280;36277;32.852;-116.998;2023-01-24T12:22:24;100910.56;;;22.66
45701;BMP280;36277;32.852;-116.998;2023-01-24T12:25:02;100900.44;;;22.75
45701;BMP280;36277;32.852;-116.998;2023-01-24T12:27:33;100914.25;;;22.83
45701;BMP280;36277;32.852;-116.998;2023-01-24T12:30:06;100920.81;;;22.90
45701;BMP280;36277;32.852;-116.998;2023-01-24T12:32:53;100914.13;;;23.00
45701;BMP280;36277;32.852;-116.998;2023-01-24T12:35:36;100925.34;;;23.06
45701;BMP280;36277;32.852;-116.998;2023-01-24T12:41:13;100941.22;;;23.20
45701;BMP280;36277;32.852;-116.998;2023-01-24T12:46:41;100945.06;;;23.35
45701;BMP280;36277;32.852;-116.998;2023-01-24T12:49:27;100954.72;;;23.39
45701;BMP280;36277;32.852;-116.998;2023-01-24T12:52:00;100963.84;;;23.48
45701;BMP280;36277;32.852;-116.998;2023-01-24T12:58:02;100972.31;;;23.62
45701;BMP280;36277;32.852;-116.998;2023-01-24T13:06:36;100994.16;;;23.64
45701;BMP280;36277;32.852;-116.998;2023-01-24T13:11:46;101002.59;;;23.54
45701;BMP280;36277;32.852;-116.998;2023-01-24T13:14:33;101010.34;;;23.51
45701;BMP280;36277;32.852;-116.998;2023-01-24T13:28:08;101034.22;;;23.26
45701;BMP280;36277;32.852;-116.998;2023-01-24T13:30:53;101042.47;;;23.18
45701;BMP280;36277;32.852;-116.998;2023-01-24T13:33:45;101037.97;;;23.17
45701;BMP280;36277;32.852;-116.998;2023-01-24T13:36:23;101056.19;;;23.10
45701;BMP280;36277;32.852;-116.998;2023-01-24T13:38:51;101057.81;;;23.03
45701;BMP280;36277;32.852;-116.998;2023-01-24T13:41:38;101055.41;;;23.00
45701;BMP280;36277;32.852;-116.998;2023-01-24T13:51:57;101081.28;;;22.82
45701;BMP280;36277;32.852;-116.998;2023-01-24T13:54:40;101092.47;;;22.81
45701;BMP280;36277;32.852;-116.998;2023-01-24T14:02:41;101097.56;;;22.68
45701;BMP280;36277;32.852;-116.998;2023-01-24T14:21:48;101119.97;;;22.55
45701;BMP280;36277;32.852;-116.998;2023-01-24T14:26:55;101132.44;;;22.67
45701;BMP280;36277;32.852;-116.998;2023-01-24T14:29:36;101131.31;;;22.78
45701;BMP280;36277;32.852;-116.998;2023-01-24T14:32:27;101137.91;;;22.85
45701;BMP280;36277;32.852;-116.998;2023-01-24T14:35:03;101134.88;;;22.96
45701;BMP280;36277;32.852;-116.998;2023-01-24T14:37:35;101149.91;;;23.01
45701;BMP280;36277;32.852;-116.998;2023-01-24T14:40:30;101161.16;;;23.07
45701;BMP280;36277;32.852;-116.998;2023-01-24T14:43:04;101160.19;;;23.16
45701;BMP280;36277;32.852;-116.998;2023-01-24T14:45:34;101160.53;;;23.21
45701;BMP280;36277;32.852;-116.998;2023-01-24T14:48:05;101155.78;;;23.31
45701;BMP280;36277;32.852;-116.998;2023-01-24T14:50:35;101158.91;;;23.36
45701;BMP280;36277;32.852;-116.998;2023-01-24T14:53:22;101177.38;;;23.44
45701;BMP280;36277;32.852;-116.998;2023-01-24T14:55:54;101187.88;;;23.48
45701;BMP280;36277;32.852;-116.998;2023-01-24T14:58:24;101183.66;;;23.62
45701;BMP280;36277;32.852;-116.998;2023-01-24T15:00:53;101172.84;;;23.68
45701;BMP280;36277;32.852;-116.998;2023-01-24T15:03:26;101168.38;;;23.75
45701;BMP280;36277;32.852;-116.998;2023-01-24T15:08:20;101173.69;;;23.69
45701;BMP280;36277;32.852;-116.998;2023-01-24T15:10:59;101179.72;;;23.64
45701;BMP280;36277;32.852;-116.998;2023-01-24T15:13:36;101175.69;;;23.59
45701;BMP280;36277;32.852;-116.998;2023-01-24T15:16:17;101173.63;;;23.53
45701;BMP280;36277;32.852;-116.998;2023-01-24T15:18:49;101178.06;;;23.46
45701;BMP280;36277;32.852;-116.998;2023-01-24T15:23:53;101181.28;;;23.33
45701;BMP280;36277;32.852;-116.998;2023-01-24T15:26:36;101188.47;;;23.26
45701;BMP280;36277;32.852;-116.998;2023-01-24T15:29:41;101186.19;;;23.22
45701;BMP280;36277;32.852;-116.998;2023-01-24T15:34:46;101181.13;;;23.09
45701;BMP280;36277;32.852;-116.998;2023-01-24T15:37:14;101186.06;;;23.06
45701;BMP280;36277;32.852;-116.998;2023-01-24T15:39:41;101192.75;;;23.03
45701;BMP280;36277;32.852;-116.998;2023-01-24T15:42:15;101197.56;;;23.01
45701;BMP280;36277;32.852;-116.998;2023-01-24T15:45:02;101198.53;;;22.93
45701;BMP280;36277;32.852;-116.998;2023-01-24T15:47:29;101193.19;;;22.91
45701;BMP280;36277;32.852;-116.998;2023-01-24T15:50:28;101206.25;;;22.89
45701;BMP280;36277;32.852;-116.998;2023-01-24T15:55:47;101202.25;;;22.84
45701;BMP280;36277;32.852;-116.998;2023-01-24T15:58:13;101209.47;;;22.85
45701;BMP280;36277;32.852;-116.998;2023-01-24T16:00:40;101207.75;;;22.84
45701;BMP280;36277;32.852;-116.998;2023-01-24T16:03:15;101204.81;;;22.85
45701;BMP280;36277;32.852;-116.998;2023-01-24T16:05:41;101201.94;;;22.87
45701;BMP280;36277;32.852;-116.998;2023-01-24T16:08:08;101211.03;;;22.87
45701;BMP280;36277;32.852;-116.998;2023-01-24T16:10:35;101206.25;;;22.89
45701;BMP280;36277;32.852;-116.998;2023-01-24T16:13:02;101212.94;;;22.87
45701;BMP280;36277;32.852;-116.998;2023-01-24T16:15:28;101209.47;;;22.85